createdAt,value
2022-09-23T00:00:34.210Z,0.00
2022-09-23T00:01:34.309Z,0.00
2022-09-23T00:02:34.287Z,0.00
2022-09-23T00:03:34.289Z,0.00
2022-09-23T00:04:34.164Z,0.00
2022-09-23T00:05:34.151Z,0.00
2022-09-23T00:06:34.142Z,0.00
2022-09-23T00:07:34.151Z,0.00
2022-09-23T00:08:34.150Z,0.00
2022-09-23T00:09:34.132Z,0.00
2022-09-23T00:10:34.117Z,0.00
2022-09-23T00:11:34.098Z,0.00
2022-09-23T00:12:34.076Z,0.00
2022-09-23T00:13:34.087Z,0.00
2022-09-23T00:14:34.404Z,0.00
2022-09-23T00:15:34.052Z,0.00
2022-09-23T00:16:34.466Z,0.00
2022-09-23T00:17:34.059Z,0.00
2022-09-23T00:18:34.018Z,0.00
2022-09-23T00:19:34.035Z,0.00
2022-09-23T00:20:33.996Z,0.00
2022-09-23T00:21:33.992Z,0.00
2022-09-23T00:22:34.012Z,0.00
2022-09-23T00:23:33.971Z,0.00
2022-09-23T00:24:33.985Z,0.00
2022-09-23T00:25:33.991Z,0.00
2022-09-23T00:26:33.941Z,0.00
2022-09-23T00:27:33.935Z,0.00
2022-09-23T00:28:33.911Z,0.00
2022-09-23T00:29:34.000Z,0.00
2022-09-23T00:30:33.914Z,0.00
2022-09-23T00:31:33.883Z,0.00
2022-09-23T00:32:33.873Z,0.00
2022-09-23T00:33:33.870Z,0.00
2022-09-23T00:34:33.875Z,0.00
2022-09-23T00:35:34.029Z,0.00
2022-09-23T00:36:33.823Z,0.00
2022-09-23T00:37:33.831Z,0.00
2022-09-23T00:38:33.811Z,0.00
2022-09-23T00:39:33.824Z,0.00
2022-09-23T00:40:33.815Z,0.00
2022-09-23T00:41:33.780Z,0.00
2022-09-23T00:42:33.752Z,0.00
2022-09-23T00:43:33.774Z,0.00
2022-09-23T00:44:33.757Z,0.00
2022-09-23T00:45:33.766Z,0.00
2022-09-23T00:46:33.811Z,0.00
2022-09-23T00:47:33.723Z,0.00
2022-09-23T00:48:33.706Z,0.00
2022-09-23T00:49:33.709Z,0.00
2022-09-23T00:50:33.676Z,0.00
2022-09-23T00:51:33.707Z,0.00
2022-09-23T00:52:33.674Z,0.00
2022-09-23T00:53:33.675Z,0.00
2022-09-23T00:54:33.651Z,0.00
2022-09-23T00:55:33.628Z,0.00
2022-09-23T00:56:33.620Z,0.00
2022-09-23T00:57:33.608Z,0.00
2022-09-23T00:58:33.622Z,0.00
2022-09-23T00:59:33.617Z,0.00
2022-09-23T01:00:33.565Z,0.00
2022-09-23T01:01:33.649Z,0.00
2022-09-23T01:02:33.644Z,0.00
2022-09-23T01:03:33.549Z,0.00
2022-09-23T01:04:33.743Z,0.00
2022-09-23T01:05:33.517Z,0.00
2022-09-23T01:06:33.493Z,0.00
2022-09-23T01:07:33.511Z,0.00
2022-09-23T01:08:33.489Z,0.00
2022-09-23T01:09:33.507Z,0.00
2022-09-23T01:10:33.479Z,0.00
2022-09-23T01:11:33.465Z,0.00
2022-09-23T01:12:33.444Z,0.00
2022-09-23T01:13:33.439Z,0.00
2022-09-23T01:14:33.434Z,0.00
2022-09-23T01:15:33.430Z,0.00
2022-09-23T01:16:33.462Z,0.00
2022-09-23T01:17:33.415Z,0.00
2022-09-23T01:18:33.388Z,0.00
2022-09-23T01:19:33.474Z,0.00
2022-09-23T01:20:33.376Z,0.00
2022-09-23T01:21:33.343Z,0.00
2022-09-23T01:22:33.346Z,0.00
2022-09-23T01:23:33.340Z,0.00
2022-09-23T01:24:33.322Z,0.00
2022-09-23T01:25:33.331Z,0.00
2022-09-23T01:26:33.307Z,0.00
2022-09-23T01:27:33.286Z,0.00
2022-09-23T01:28:33.331Z,0.00
2022-09-23T01:29:33.458Z,0.00
2022-09-23T01:30:33.311Z,0.00
2022-09-23T01:31:33.261Z,0.00
2022-09-23T01:32:33.230Z,0.00
2022-09-23T01:33:33.220Z,0.00
2022-09-23T01:34:33.221Z,0.00
2022-09-23T01:35:33.226Z,0.00
2022-09-23T01:36:33.227Z,0.00
2022-09-23T01:37:33.175Z,0.00
2022-09-23T01:38:33.196Z,0.00
2022-09-23T01:39:33.173Z,0.00
2022-09-23T01:40:33.250Z,0.00
2022-09-23T01:41:33.153Z,0.00
2022-09-23T01:42:33.141Z,0.00
2022-09-23T01:43:33.106Z,0.00
2022-09-23T01:44:33.120Z,0.00
2022-09-23T01:45:33.082Z,0.00
2022-09-23T01:46:33.087Z,0.00
2022-09-23T01:47:33.083Z,0.00
2022-09-23T01:48:33.117Z,0.00
2022-09-23T01:49:33.056Z,0.00
2022-09-23T01:50:33.049Z,0.00
2022-09-23T01:51:33.039Z,0.00
2022-09-23T01:52:33.029Z,0.00
2022-09-23T01:53:33.041Z,0.00
2022-09-23T01:54:33.000Z,0.00
2022-09-23T01:55:32.992Z,0.00
2022-09-23T01:56:32.998Z,0.00
2022-09-23T01:57:32.963Z,0.00
2022-09-23T01:58:32.971Z,0.00
2022-09-23T01:59:32.947Z,0.00
2022-09-23T02:00:32.947Z,0.00
2022-09-23T02:01:33.261Z,0.00
2022-09-23T02:02:32.955Z,0.00
2022-09-23T02:03:32.899Z,0.00
2022-09-23T02:04:32.893Z,0.00
2022-09-23T02:05:32.899Z,0.00
2022-09-23T02:06:32.880Z,0.00
2022-09-23T02:07:32.877Z,0.00
2022-09-23T02:08:32.855Z,0.00
2022-09-23T02:09:32.829Z,0.00
2022-09-23T02:10:32.825Z,0.00
2022-09-23T02:11:32.818Z,0.00
2022-09-23T02:12:32.826Z,0.00
2022-09-23T02:13:32.794Z,0.00
2022-09-23T02:14:32.788Z,0.00
2022-09-23T02:15:32.763Z,0.00
2022-09-23T02:16:32.819Z,0.00
2022-09-23T02:17:32.769Z,0.00
2022-09-23T02:18:32.740Z,0.00
2022-09-23T02:19:32.733Z,0.00
2022-09-23T02:20:32.728Z,0.00
2022-09-23T02:21:32.705Z,0.00
2022-09-23T02:22:32.719Z,0.00
2022-09-23T02:23:32.693Z,0.00
2022-09-23T02:24:32.687Z,0.00
2022-09-23T02:25:32.652Z,0.00
2022-09-23T02:26:32.661Z,0.00
2022-09-23T02:27:32.643Z,0.00
2022-09-23T02:28:32.656Z,0.00
2022-09-23T02:29:32.615Z,0.00
2022-09-23T02:30:32.615Z,0.00
2022-09-23T02:31:32.642Z,0.00
2022-09-23T02:32:32.594Z,0.00
2022-09-23T02:33:32.610Z,0.00
2022-09-23T02:34:32.574Z,0.00
2022-09-23T02:35:32.551Z,0.00
2022-09-23T02:36:32.597Z,0.00
2022-09-23T02:37:32.540Z,0.00
2022-09-23T02:38:32.533Z,0.00
2022-09-23T02:39:32.513Z,0.00
2022-09-23T02:40:32.556Z,0.00
2022-09-23T02:41:32.503Z,0.00
2022-09-23T02:42:32.520Z,0.00
2022-09-23T02:43:32.471Z,0.00
2022-09-23T02:44:32.571Z,0.00
2022-09-23T02:45:32.481Z,0.00
2022-09-23T02:46:32.443Z,0.00
2022-09-23T02:47:32.435Z,0.00
2022-09-23T02:48:32.449Z,0.00
2022-09-23T02:49:32.481Z,0.00
2022-09-23T02:50:32.431Z,0.00
2022-09-23T02:51:32.383Z,0.00
2022-09-23T02:52:32.406Z,0.00
2022-09-23T02:53:32.368Z,0.00
2022-09-23T02:54:32.357Z,0.00
2022-09-23T02:55:32.391Z,0.00
2022-09-23T02:56:32.357Z,0.00
2022-09-23T02:57:32.330Z,0.00
2022-09-23T02:58:32.318Z,0.00
2022-09-23T02:59:32.309Z,0.00
2022-09-23T03:00:32.300Z,0.00
2022-09-23T03:01:32.340Z,0.00
2022-09-23T03:02:32.374Z,0.00
2022-09-23T03:03:32.294Z,0.00
2022-09-23T03:04:32.387Z,0.00
2022-09-23T03:05:32.232Z,0.00
2022-09-23T03:06:32.235Z,0.00
2022-09-23T03:07:32.209Z,0.00
2022-09-23T03:08:32.211Z,0.00
2022-09-23T03:09:32.185Z,0.00
2022-09-23T03:10:32.208Z,0.00
2022-09-23T03:11:32.195Z,0.00
2022-09-23T03:12:32.171Z,0.00
2022-09-23T03:13:32.147Z,0.00
2022-09-23T03:14:32.147Z,0.00
2022-09-23T03:15:32.132Z,0.00
2022-09-23T03:16:32.196Z,0.00
2022-09-23T03:17:32.094Z,0.00
2022-09-23T03:18:32.090Z,0.00
2022-09-23T03:19:32.094Z,0.00
2022-09-23T03:20:32.088Z,0.00
2022-09-23T03:21:32.085Z,0.00
2022-09-23T03:22:32.063Z,0.00
2022-09-23T03:23:32.038Z,0.00
2022-09-23T03:24:32.047Z,0.00
2022-09-23T03:25:32.034Z,0.00
2022-09-23T03:26:32.020Z,0.00
2022-09-23T03:27:32.006Z,0.00
2022-09-23T03:28:32.004Z,0.00
2022-09-23T03:29:31.978Z,0.00
2022-09-23T03:30:31.990Z,0.00
2022-09-23T03:31:32.026Z,0.00
2022-09-23T03:32:31.958Z,0.00
2022-09-23T03:33:31.938Z,0.00
2022-09-23T03:34:31.941Z,0.00
2022-09-23T03:35:31.926Z,0.00
2022-09-23T03:36:31.920Z,0.00
2022-09-23T03:37:31.892Z,0.00
2022-09-23T03:38:31.886Z,0.00
2022-09-23T03:39:31.884Z,0.00
2022-09-23T03:40:31.920Z,0.00
2022-09-23T03:41:31.859Z,0.00
2022-09-23T03:42:31.851Z,0.00
2022-09-23T03:43:35.228Z,0.00
2022-09-23T03:44:31.836Z,0.00
2022-09-23T03:45:31.830Z,0.00
2022-09-23T03:46:31.798Z,0.00
2022-09-23T03:47:31.794Z,0.00
2022-09-23T03:48:31.782Z,0.00
2022-09-23T03:49:31.764Z,0.00
2022-09-23T03:50:32.220Z,0.00
2022-09-23T03:51:31.738Z,0.00
2022-09-23T03:52:31.793Z,0.00
2022-09-23T03:53:31.719Z,0.00
2022-09-23T03:54:31.714Z,0.00
2022-09-23T03:55:31.713Z,0.00
2022-09-23T03:56:31.691Z,0.00
2022-09-23T03:58:42.079Z,0.00
2022-09-23T03:59:43.034Z,0.00
2022-09-23T04:00:43.114Z,0.00
2022-09-23T04:01:43.087Z,0.00
2022-09-23T04:02:43.014Z,0.00
2022-09-23T04:03:42.991Z,0.00
2022-09-23T04:04:43.000Z,0.00
2022-09-23T04:05:42.978Z,0.00
2022-09-23T04:06:42.980Z,0.00
2022-09-23T04:07:42.980Z,0.00
2022-09-23T04:08:43.005Z,0.00
2022-09-23T04:09:42.929Z,0.00
2022-09-23T04:10:42.933Z,0.00
2022-09-23T04:11:42.928Z,0.00
2022-09-23T04:12:42.900Z,0.00
2022-09-23T04:13:42.888Z,0.00
2022-09-23T04:14:42.878Z,0.00
2022-09-23T04:15:42.869Z,0.00
2022-09-23T04:16:42.918Z,0.00
2022-09-23T04:17:42.873Z,0.00
2022-09-23T04:18:42.842Z,0.00
2022-09-23T04:19:42.827Z,0.00
2022-09-23T04:20:42.819Z,0.00
2022-09-23T04:21:42.797Z,0.00
2022-09-23T04:22:42.845Z,0.00
2022-09-23T04:23:42.803Z,0.00
2022-09-23T04:24:42.786Z,0.00
2022-09-23T04:25:42.764Z,0.00
2022-09-23T04:26:42.769Z,0.00
2022-09-23T04:27:42.744Z,0.00
2022-09-23T04:28:42.921Z,0.00
2022-09-23T04:29:42.718Z,0.00
2022-09-23T04:30:42.719Z,0.00
2022-09-23T04:31:42.723Z,0.00
2022-09-23T04:32:43.309Z,0.00
2022-09-23T04:33:42.667Z,0.00
2022-09-23T04:34:42.701Z,0.00
2022-09-23T04:35:42.652Z,0.00
2022-09-23T04:36:42.653Z,0.00
2022-09-23T04:37:42.654Z,0.00
2022-09-23T04:38:42.637Z,0.00
2022-09-23T04:39:42.637Z,0.00
2022-09-23T04:40:42.702Z,0.00
2022-09-23T04:41:42.588Z,0.00
2022-09-23T04:42:42.587Z,0.00
2022-09-23T04:43:42.572Z,0.00
2022-09-23T04:44:42.657Z,0.00
2022-09-23T04:45:42.599Z,0.00
2022-09-23T04:46:42.622Z,0.00
2022-09-23T04:47:42.528Z,0.00
2022-09-23T04:48:42.489Z,1.00
2022-09-23T04:49:42.510Z,0.00
2022-09-23T04:50:42.500Z,0.00
2022-09-23T04:51:42.507Z,0.00
2022-09-23T04:52:42.489Z,0.00
2022-09-23T04:53:42.465Z,0.00
2022-09-23T04:54:42.450Z,1.00
2022-09-23T04:55:42.449Z,0.00
2022-09-23T04:56:42.417Z,2.00
2022-09-23T04:57:42.369Z,2.00
2022-09-23T04:58:42.363Z,4.00
2022-09-23T04:59:42.358Z,2.00
2022-09-23T05:00:42.373Z,2.00
2022-09-23T05:01:42.488Z,2.00
2022-09-23T05:02:42.330Z,5.00
2022-09-23T05:03:42.356Z,4.00
2022-09-23T05:04:42.307Z,5.00
2022-09-23T05:05:42.298Z,6.00
2022-09-23T05:06:42.294Z,13.00
2022-09-23T05:07:42.414Z,10.00
2022-09-23T05:08:42.268Z,14.00
2022-09-23T05:09:42.246Z,21.00
2022-09-23T05:10:42.244Z,23.00
2022-09-23T05:11:42.259Z,24.00
2022-09-23T05:12:42.238Z,28.00
2022-09-23T05:13:42.206Z,32.00
2022-09-23T05:14:42.199Z,38.00
2022-09-23T05:15:42.187Z,42.00
2022-09-23T05:16:42.274Z,50.00
2022-09-23T05:17:42.196Z,56.00
2022-09-23T05:18:42.174Z,63.00
2022-09-23T05:19:42.140Z,71.00
2022-09-23T05:20:42.145Z,75.00
2022-09-23T05:21:42.158Z,79.00
2022-09-23T05:22:42.153Z,90.00
2022-09-23T05:23:42.125Z,95.00
2022-09-23T05:24:42.120Z,104.00
2022-09-23T05:25:42.107Z,109.00
2022-09-23T05:26:42.138Z,118.00
2022-09-23T05:27:42.053Z,125.00
2022-09-23T05:28:42.097Z,135.00
2022-09-23T05:29:42.034Z,143.00
2022-09-23T05:30:42.040Z,157.00
2022-09-23T05:31:42.089Z,167.00
2022-09-23T05:32:42.024Z,182.00
2022-09-23T05:33:42.067Z,193.00
2022-09-23T05:34:42.010Z,205.00
2022-09-23T05:35:41.988Z,222.00
2022-09-23T05:36:41.972Z,235.00
2022-09-23T05:37:41.956Z,244.00
2022-09-23T05:38:41.951Z,262.00
2022-09-23T05:39:41.945Z,276.00
2022-09-23T05:40:42.043Z,289.00
2022-09-23T05:41:41.910Z,300.00
2022-09-23T05:42:41.927Z,316.00
2022-09-23T05:43:41.895Z,334.00
2022-09-23T05:44:41.919Z,349.00
2022-09-23T05:45:41.899Z,363.00
2022-09-23T05:46:41.953Z,380.00
2022-09-23T05:47:41.883Z,397.00
2022-09-23T05:48:41.897Z,417.00
2022-09-23T05:49:58.476Z,423.00
2022-09-23T05:50:41.854Z,446.00
2022-09-23T05:51:41.875Z,466.00
2022-09-23T05:52:41.889Z,484.00
2022-09-23T05:53:41.814Z,505.00
2022-09-23T05:54:41.828Z,518.00
2022-09-23T05:55:41.771Z,530.00
2022-09-23T05:56:41.787Z,552.00
2022-09-23T05:57:41.748Z,563.00
2022-09-23T05:58:41.770Z,581.00
2022-09-23T05:59:41.727Z,596.00
2022-09-23T06:00:41.731Z,607.00
2022-09-23T06:01:41.896Z,635.00
2022-09-23T06:02:41.806Z,643.00
2022-09-23T06:03:41.686Z,639.00
2022-09-23T06:04:41.700Z,651.00
2022-09-23T06:05:41.663Z,675.00
2022-09-23T06:06:41.664Z,689.00
2022-09-23T06:07:41.666Z,671.00
2022-09-23T06:08:41.654Z,704.00
2022-09-23T06:09:41.624Z,740.00
2022-09-23T06:10:41.621Z,741.00
2022-09-23T06:11:41.605Z,742.00
2022-09-23T06:12:41.597Z,765.00
2022-09-23T06:13:41.599Z,784.00
2022-09-23T06:14:41.614Z,801.00
2022-09-23T06:15:41.640Z,816.00
2022-09-23T06:16:41.563Z,839.00
2022-09-23T06:17:41.535Z,868.00
2022-09-23T06:18:41.541Z,885.00
2022-09-23T06:19:41.536Z,909.00
2022-09-23T06:20:41.526Z,928.00
2022-09-23T06:21:41.495Z,972.00
2022-09-23T06:22:41.522Z,990.00
2022-09-23T06:23:42.126Z,1019.00
2022-09-23T06:24:41.513Z,1045.00
2022-09-23T06:25:41.522Z,1069.00
2022-09-23T06:26:41.461Z,1098.00
2022-09-23T06:27:41.435Z,1130.00
2022-09-23T06:28:41.440Z,1170.00
2022-09-23T06:29:41.446Z,1207.00
2022-09-23T06:30:41.415Z,1241.00
2022-09-23T06:31:41.487Z,1281.00
2022-09-23T06:32:41.400Z,1312.00
2022-09-23T06:33:41.383Z,1350.00
2022-09-23T06:34:51.123Z,1377.00
2022-09-23T06:35:43.818Z,1387.00
2022-09-23T06:36:44.529Z,1386.00
2022-09-23T06:37:41.337Z,1425.00
2022-09-23T06:38:41.326Z,1475.00
2022-09-23T06:39:41.319Z,1477.00
2022-09-23T06:40:41.409Z,1510.00
2022-09-23T06:41:41.283Z,1530.00
2022-09-23T06:42:41.293Z,1595.00
2022-09-23T06:43:41.269Z,1642.00
2022-09-23T06:44:41.262Z,1598.00
2022-09-23T06:45:41.247Z,1727.00
2022-09-23T06:46:41.339Z,1653.00
2022-09-23T06:47:41.227Z,1527.00
2022-09-23T06:48:45.945Z,1782.00
2022-09-23T06:49:41.204Z,1755.00
2022-09-23T06:50:41.213Z,1807.00
2022-09-23T06:51:41.235Z,1871.00
2022-09-23T06:52:41.173Z,1895.00
2022-09-23T06:53:41.171Z,1875.00
2022-09-23T06:54:41.170Z,1956.00
2022-09-23T06:55:41.148Z,1899.00
2022-09-23T06:56:41.130Z,1993.00
2022-09-23T06:57:41.150Z,2092.00
2022-09-23T06:58:41.117Z,2090.00
2022-09-23T06:59:41.111Z,2047.00
2022-09-23T07:00:41.100Z,2057.00
2022-09-23T07:01:41.241Z,2370.00
2022-09-23T07:02:41.220Z,2445.00
2022-09-23T07:03:41.067Z,2099.00
2022-09-23T07:04:41.085Z,2293.00
2022-09-23T07:05:41.128Z,1990.00
2022-09-23T07:06:41.022Z,2350.00
2022-09-23T07:07:41.052Z,2266.00
2022-09-23T07:08:41.006Z,2971.00
2022-09-23T07:09:41.055Z,1917.00
2022-09-23T07:10:41.020Z,2803.00
2022-09-23T07:11:40.984Z,2058.00
2022-09-23T07:12:41.011Z,2104.00
2022-09-23T07:13:41.005Z,2356.00
2022-09-23T07:14:40.963Z,2470.00
2022-09-23T07:15:41.004Z,2578.00
2022-09-23T07:16:40.920Z,2443.00
2022-09-23T07:17:40.927Z,2567.00
2022-09-23T07:18:40.901Z,2237.00
2022-09-23T07:19:40.926Z,2268.00
2022-09-23T07:20:40.891Z,2556.00
2022-09-23T07:21:40.885Z,2469.00
2022-09-23T07:22:40.863Z,2682.00
2022-09-23T07:23:40.861Z,2551.00
2022-09-23T07:24:40.849Z,2315.00
2022-09-23T07:25:40.929Z,2592.00
2022-09-23T07:26:45.480Z,2758.00
2022-09-23T07:27:40.885Z,2972.00
2022-09-23T07:28:40.809Z,2370.00
2022-09-23T07:29:47.795Z,2643.00
2022-09-23T07:30:50.822Z,2844.00
2022-09-23T07:31:40.906Z,2754.00
2022-09-23T07:32:48.262Z,2449.00
2022-09-23T07:33:40.817Z,2678.00
2022-09-23T07:34:40.743Z,2831.00
2022-09-23T07:35:40.731Z,2759.00
2022-09-23T07:36:41.048Z,2646.00
2022-09-23T07:37:40.716Z,2897.00
2022-09-23T07:38:45.277Z,2662.00
2022-09-23T07:39:40.689Z,2654.00
2022-09-23T07:40:40.695Z,2668.00
2022-09-23T07:41:40.703Z,2774.00
2022-09-23T07:42:40.655Z,2839.00
2022-09-23T07:43:40.638Z,2931.00
2022-09-23T07:44:40.627Z,2559.00
2022-09-23T07:45:40.632Z,2859.00
2022-09-23T07:46:40.659Z,2168.00
2022-09-23T07:47:40.688Z,2591.00
2022-09-23T07:48:40.616Z,2873.00
2022-09-23T07:49:40.614Z,2731.00
2022-09-23T07:50:40.570Z,2927.00
2022-09-23T07:51:40.591Z,2947.00
2022-09-23T07:52:40.571Z,2732.00
2022-09-23T07:53:40.545Z,2675.00
2022-09-23T07:54:40.518Z,2567.00
2022-09-23T07:55:40.569Z,2518.00
2022-09-23T07:56:40.511Z,2466.00
2022-09-23T07:57:40.540Z,2516.00
2022-09-23T07:58:40.531Z,2546.00
2022-09-23T07:59:40.480Z,2597.00
2022-09-23T08:00:40.464Z,2902.00
2022-09-23T08:01:40.521Z,2612.00
2022-09-23T08:02:40.494Z,2626.00
2022-09-23T08:03:40.492Z,2879.00
2022-09-23T08:04:40.482Z,2887.00
2022-09-23T08:05:40.422Z,3001.00
2022-09-23T08:06:40.393Z,3058.00
2022-09-23T08:07:40.399Z,3163.00
2022-09-23T08:08:40.423Z,3396.00
2022-09-23T08:09:40.432Z,3182.00
2022-09-23T08:10:40.358Z,3365.00
2022-09-23T08:11:40.406Z,3091.00
2022-09-23T08:12:40.334Z,3296.00
2022-09-23T08:13:40.356Z,3548.00
2022-09-23T08:14:40.336Z,3362.00
2022-09-23T08:15:40.434Z,3670.00
2022-09-23T08:16:40.290Z,3413.00
2022-09-23T08:17:40.303Z,3412.00
2022-09-23T08:18:40.281Z,3380.00
2022-09-23T08:19:40.278Z,3435.00
2022-09-23T08:20:43.659Z,3453.00
2022-09-23T08:21:40.261Z,3358.00
2022-09-23T08:22:40.251Z,3372.00
2022-09-23T08:23:40.225Z,3304.00
2022-09-23T08:24:40.219Z,3306.00
2022-09-23T08:25:40.365Z,3317.00
2022-09-23T08:26:40.204Z,3260.00
2022-09-23T08:27:40.202Z,3316.00
2022-09-23T08:28:40.208Z,3096.00
2022-09-23T08:29:40.178Z,3252.00
2022-09-23T08:30:40.241Z,3234.00
2022-09-23T08:31:40.145Z,3092.00
2022-09-23T08:32:40.165Z,3056.00
2022-09-23T08:33:40.131Z,3022.00
2022-09-23T08:34:40.113Z,2959.00
2022-09-23T08:35:40.139Z,2950.00
2022-09-23T08:36:40.114Z,2930.00
2022-09-23T08:37:40.092Z,2901.00
2022-09-23T08:38:40.068Z,2849.00
2022-09-23T08:39:40.074Z,2827.00
2022-09-23T08:40:40.078Z,2827.00
2022-09-23T08:41:40.051Z,2824.00
2022-09-23T08:42:40.064Z,2831.00
2022-09-23T08:43:40.012Z,2854.00
2022-09-23T08:44:40.017Z,2840.00
2022-09-23T08:45:40.012Z,2849.00
2022-09-23T08:46:40.011Z,2938.00
2022-09-23T08:47:40.411Z,3001.00
2022-09-23T08:48:40.048Z,2997.00
2022-09-23T08:49:39.978Z,3008.00
2022-09-23T08:50:40.029Z,3012.00
2022-09-23T08:51:39.982Z,3039.00
2022-09-23T08:52:39.967Z,3067.00
2022-09-23T08:53:39.978Z,3105.00
2022-09-23T08:54:39.904Z,3137.00
2022-09-23T08:55:39.897Z,3162.00
2022-09-23T08:56:39.946Z,3177.00
2022-09-23T08:57:39.886Z,3479.00
2022-09-23T08:58:39.859Z,2667.00
2022-09-23T08:59:39.851Z,3256.00
2022-09-23T09:00:39.842Z,3294.00
2022-09-23T09:01:39.871Z,3355.00
2022-09-23T09:02:39.938Z,3444.00
2022-09-23T09:03:39.818Z,3375.00
2022-09-23T09:04:39.788Z,3442.00
2022-09-23T09:05:39.810Z,3507.00
2022-09-23T09:06:52.446Z,3590.00
2022-09-23T09:07:39.842Z,3620.00
2022-09-23T09:08:39.754Z,3659.00
2022-09-23T09:09:39.752Z,4414.00
2022-09-23T09:10:39.746Z,2247.00
2022-09-23T09:11:39.728Z,3633.00
2022-09-23T09:12:39.708Z,3682.00
2022-09-23T09:13:39.738Z,3823.00
2022-09-23T09:14:39.685Z,3822.00
2022-09-23T09:15:39.740Z,3808.00
2022-09-23T09:16:58.829Z,3939.00
2022-09-23T09:17:39.660Z,3930.00
2022-09-23T09:18:39.681Z,3947.00
2022-09-23T09:19:39.644Z,3969.00
2022-09-23T09:20:39.620Z,4096.00
2022-09-23T09:21:39.652Z,4099.00
2022-09-23T09:22:39.605Z,4109.00
2022-09-23T09:23:39.606Z,4093.00
2022-09-23T09:24:39.580Z,4211.00
2022-09-23T09:25:39.591Z,4365.00
2022-09-23T09:26:39.579Z,4364.00
2022-09-23T09:27:39.555Z,4396.00
2022-09-23T09:28:39.707Z,4504.00
2022-09-23T09:29:39.725Z,4545.00
2022-09-23T09:30:39.574Z,4390.00
2022-09-23T09:31:39.580Z,4462.00
2022-09-23T09:32:39.521Z,4463.00
2022-09-23T09:33:39.527Z,4436.00
2022-09-23T09:34:39.499Z,4555.00
2022-09-23T09:35:39.623Z,4568.00
2022-09-23T09:36:39.473Z,4626.00
2022-09-23T09:37:39.499Z,4466.00
2022-09-23T09:38:39.456Z,4453.00
2022-09-23T09:39:39.430Z,4365.00
2022-09-23T09:40:39.548Z,4496.00
2022-09-23T09:41:39.441Z,4583.00
2022-09-23T09:42:39.391Z,4701.00
2022-09-23T09:43:43.449Z,4640.00
2022-09-23T09:44:39.365Z,4609.00
2022-09-23T09:45:39.381Z,4692.00
2022-09-23T09:46:39.390Z,4665.00
2022-09-23T09:47:39.352Z,4670.00
2022-09-23T09:48:39.358Z,4685.00
2022-09-23T09:49:40.686Z,4865.00
2022-09-23T09:50:39.311Z,4673.00
2022-09-23T09:51:39.300Z,4642.00
2022-09-23T09:52:42.896Z,4711.00
2022-09-23T09:53:39.241Z,4642.00
2022-09-23T09:54:39.209Z,4623.00
2022-09-23T09:55:39.283Z,4609.00
2022-09-23T09:56:39.212Z,4660.00
2022-09-23T09:57:39.250Z,4709.00
2022-09-23T09:58:39.177Z,4572.00
2022-09-23T09:59:39.169Z,4918.00
2022-09-23T10:00:39.159Z,4898.00
2022-09-23T10:01:39.214Z,4794.00
2022-09-23T10:02:39.117Z,4718.00
2022-09-23T10:03:39.121Z,4732.00
2022-09-23T10:04:39.174Z,4869.00
2022-09-23T10:05:39.108Z,4988.00
2022-09-23T10:06:39.074Z,4946.00
2022-09-23T10:07:39.117Z,5239.00
2022-09-23T10:08:39.079Z,5055.00
2022-09-23T10:09:39.051Z,5295.00
2022-09-23T10:10:39.047Z,5453.00
2022-09-23T10:11:39.025Z,5516.00
2022-09-23T10:12:39.024Z,5798.00
2022-09-23T10:13:39.026Z,5607.00
2022-09-23T10:14:39.068Z,6266.00
2022-09-23T10:15:43.814Z,5982.00
2022-09-23T10:16:39.032Z,5732.00
2022-09-23T10:17:38.973Z,5770.00
2022-09-23T10:18:38.978Z,5545.00
2022-09-23T10:19:38.978Z,5763.00
2022-09-23T10:20:44.958Z,5902.00
2022-09-23T10:21:38.924Z,6592.00
2022-09-23T10:22:38.915Z,6346.00
2022-09-23T10:23:38.898Z,5944.00
2022-09-23T10:24:38.906Z,5348.00
2022-09-23T10:25:38.911Z,5879.00
2022-09-23T10:26:38.866Z,6391.00
2022-09-23T10:27:38.873Z,6602.00
2022-09-23T10:28:38.849Z,6586.00
2022-09-23T10:29:38.891Z,6114.00
2022-09-23T10:30:38.848Z,5784.00
2022-09-23T10:31:38.822Z,5771.00
2022-09-23T10:32:38.809Z,5686.00
2022-09-23T10:33:38.806Z,5878.00
2022-09-23T10:34:40.171Z,6212.00
2022-09-23T10:35:38.788Z,6254.00
2022-09-23T10:36:43.758Z,6655.00
2022-09-23T10:37:38.765Z,6279.00
2022-09-23T10:38:38.756Z,6267.00
2022-09-23T10:39:38.749Z,5597.00
2022-09-23T10:40:38.961Z,5233.00
2022-09-23T10:41:38.724Z,5731.00
2022-09-23T10:42:38.706Z,5658.00
2022-09-23T10:43:38.721Z,5682.00
2022-09-23T10:44:38.689Z,5594.00
2022-09-23T10:45:41.180Z,5118.00
2022-09-23T10:46:38.777Z,5448.00
2022-09-23T10:47:38.669Z,5693.00
2022-09-23T10:48:38.650Z,5560.00
2022-09-23T10:49:38.641Z,6096.00
2022-09-23T10:50:38.660Z,5908.00
2022-09-23T10:51:38.627Z,6120.00
2022-09-23T10:52:38.607Z,6046.00
2022-09-23T10:53:38.621Z,6032.00
2022-09-23T10:54:38.733Z,6286.00
2022-09-23T10:55:38.592Z,6833.00
2022-09-23T10:56:38.591Z,7169.00
2022-09-23T10:57:38.571Z,6943.00
2022-09-23T10:58:38.547Z,6556.00
2022-09-23T10:59:38.557Z,7019.00
2022-09-23T11:00:38.559Z,6748.00
2022-09-23T11:01:38.583Z,7604.00
2022-09-23T11:02:38.507Z,8644.00
2022-09-23T11:03:38.526Z,8351.00
2022-09-23T11:04:38.531Z,8580.00
2022-09-23T11:05:38.538Z,8512.00
2022-09-23T11:06:38.502Z,7817.00
2022-09-23T11:07:38.459Z,6669.00
2022-09-23T11:08:38.448Z,7483.00
2022-09-23T11:09:38.461Z,7171.00
2022-09-23T11:10:46.520Z,7489.00
2022-09-23T11:11:38.439Z,7044.00
2022-09-23T11:12:38.474Z,7249.00
2022-09-23T11:13:38.394Z,10025.00
2022-09-23T11:14:38.400Z,8606.00
2022-09-23T11:15:39.475Z,8125.00
2022-09-23T11:16:38.462Z,8727.00
2022-09-23T11:17:38.407Z,7848.00
2022-09-23T11:18:38.367Z,9666.00
2022-09-23T11:19:42.178Z,8558.00
2022-09-23T11:20:38.344Z,13138.00
2022-09-23T11:21:38.406Z,15076.00
2022-09-23T11:22:38.332Z,16320.00
2022-09-23T11:23:38.312Z,12614.00
2022-09-23T11:24:38.304Z,18885.00
2022-09-23T11:25:38.284Z,9985.00
2022-09-23T11:26:38.296Z,12434.00
2022-09-23T11:27:38.249Z,10935.00
2022-09-23T11:28:38.300Z,12397.00
2022-09-23T11:29:38.239Z,19261.00
2022-09-23T11:30:38.311Z,11791.00
2022-09-23T11:31:38.215Z,10227.00
2022-09-23T11:32:38.216Z,9250.00
2022-09-23T11:33:38.227Z,10602.00
2022-09-23T11:34:38.242Z,8464.00
2022-09-23T11:35:38.170Z,8172.00
2022-09-23T11:36:38.176Z,7858.00
2022-09-23T11:37:38.152Z,7590.00
2022-09-23T11:38:38.196Z,7187.00
2022-09-23T11:39:38.256Z,7005.00
2022-09-23T11:40:41.079Z,7141.00
2022-09-23T11:41:38.160Z,7238.00
2022-09-23T11:42:38.116Z,7110.00
2022-09-23T11:43:38.083Z,6878.00
2022-09-23T11:44:38.089Z,6597.00
2022-09-23T11:45:38.120Z,6639.00
2022-09-23T11:46:38.074Z,6701.00
2022-09-23T11:47:39.934Z,6551.00
2022-09-23T11:48:38.044Z,6656.00
2022-09-23T11:49:38.038Z,6856.00
2022-09-23T11:50:38.035Z,7010.00
2022-09-23T11:51:38.013Z,7482.00
2022-09-23T11:52:38.025Z,7942.00
2022-09-23T11:53:38.008Z,8111.00
2022-09-23T11:54:37.993Z,8205.00
2022-09-23T11:55:39.515Z,8414.00
2022-09-23T11:56:40.980Z,7687.00
2022-09-23T11:57:47.050Z,8551.00
2022-09-23T11:58:37.977Z,8926.00
2022-09-23T11:59:40.970Z,9336.00
2022-09-23T12:00:38.051Z,7899.00
2022-09-23T12:01:39.057Z,7912.00
2022-09-23T12:02:38.049Z,7027.00
2022-09-23T12:03:43.879Z,7955.00
2022-09-23T12:04:45.167Z,7920.00
2022-09-23T12:05:38.080Z,6904.00
2022-09-23T12:06:37.885Z,6467.00
2022-09-23T12:07:37.850Z,8206.00
2022-09-23T12:08:37.868Z,5970.00
2022-09-23T12:10:00.156Z,7676.00
2022-09-23T12:10:37.833Z,8514.00
2022-09-23T12:11:37.808Z,7575.00
2022-09-23T12:12:37.803Z,6156.00
2022-09-23T12:13:37.786Z,6613.00
2022-09-23T12:14:37.802Z,5979.00
2022-09-23T12:15:37.771Z,5664.00
2022-09-23T12:16:37.794Z,5301.00
2022-09-23T12:17:37.781Z,5456.00
2022-09-23T12:18:37.758Z,5312.00
2022-09-23T12:19:37.740Z,6893.00
2022-09-23T12:20:37.716Z,7235.00
2022-09-23T12:21:53.068Z,8284.00
2022-09-23T12:22:37.717Z,5930.00
2022-09-23T12:23:37.698Z,5495.00
2022-09-23T12:24:37.713Z,4786.00
2022-09-23T12:25:37.674Z,4579.00
2022-09-23T12:26:37.670Z,4774.00
2022-09-23T12:27:37.651Z,4344.00
2022-09-23T12:28:37.661Z,5122.00
2022-09-23T12:29:37.639Z,4471.00
2022-09-23T12:30:37.869Z,4244.00
2022-09-23T12:31:41.143Z,4176.00
2022-09-23T12:32:37.607Z,4146.00
2022-09-23T12:33:37.587Z,4234.00
2022-09-23T12:34:37.609Z,4371.00
2022-09-23T12:35:37.559Z,4343.00
2022-09-23T12:36:37.608Z,4883.00
2022-09-23T12:37:37.561Z,4871.00